sensor_id;sensor_type;location;lat;lon;timestamp;P1;durP1;ratioP1;P2;durP2;ratioP2
68432;SDS011;55412;51.350;17.056;2023-04-29T00:00:10;9.90;;;4.68;;
68432;SDS011;55412;51.350;17.056;2023-04-29T00:02:38;10.95;;;3.85;;
68432;SDS011;55412;51.350;17.056;2023-04-29T00:05:04;7.27;;;3.37;;
68432;SDS011;55412;51.350;17.056;2023-04-29T00:07:31;9.85;;;4.13;;
68432;SDS011;55412;51.350;17.056;2023-04-29T00:09:57;9.40;;;3.80;;
68432;SDS011;55412;51.350;17.056;2023-04-29T00:12:24;10.68;;;4.40;;
68432;SDS011;55412;51.350;17.056;2023-04-29T00:14:50;9.35;;;3.97;;
68432;SDS011;55412;51.350;17.056;2023-04-29T00:17:16;8.30;;;3.67;;
68432;SDS011;55412;51.350;17.056;2023-04-29T00:19:42;9.90;;;3.90;;
68432;SDS011;55412;51.350;17.056;2023-04-29T00:22:09;10.10;;;4.07;;
68432;SDS011;55412;51.350;17.056;2023-04-29T00:24:35;8.95;;;4.22;;
68432;SDS011;55412;51.350;17.056;2023-04-29T00:27:01;8.18;;;3.67;;
68432;SDS011;55412;51.350;17.056;2023-04-29T00:29:28;8.83;;;4.43;;
68432;SDS011;55412;51.350;17.056;2023-04-29T00:31:54;10.02;;;4.80;;
68432;SDS011;55412;51.350;17.056;2023-04-29T00:34:20;10.95;;;4.80;;
68432;SDS011;55412;51.350;17.056;2023-04-29T00:36:46;11.25;;;3.67;;
68432;SDS011;55412;51.350;17.056;2023-04-29T00:39:12;8.53;;;4.27;;
68432;SDS011;55412;51.350;17.056;2023-04-29T00:41:38;9.05;;;4.18;;
68432;SDS011;55412;51.350;17.056;2023-04-29T00:44:04;8.27;;;4.00;;
68432;SDS011;55412;51.350;17.056;2023-04-29T00:46:31;10.10;;;3.72;;
68432;SDS011;55412;51.350;17.056;2023-04-29T00:48:58;9.50;;;4.20;;
68432;SDS011;55412;51.350;17.056;2023-04-29T00:51:24;11.00;;;4.53;;
68432;SDS011;55412;51.350;17.056;2023-04-29T00:53:51;11.85;;;5.32;;
68432;SDS011;55412;51.350;17.056;2023-04-29T00:56:18;10.75;;;4.82;;
68432;SDS011;55412;51.350;17.056;2023-04-29T00:58:47;12.95;;;4.57;;
68432;SDS011;55412;51.350;17.056;2023-04-29T01:01:17;11.02;;;4.90;;
68432;SDS011;55412;51.350;17.056;2023-04-29T01:03:44;12.50;;;4.73;;
68432;SDS011;55412;51.350;17.056;2023-04-29T01:14:37;10.88;;;5.22;;
68432;SDS011;55412;51.350;17.056;2023-04-29T01:17:11;10.77;;;5.33;;
68432;SDS011;55412;51.350;17.056;2023-04-29T01:19:43;10.65;;;4.55;;
68432;SDS011;55412;51.350;17.056;2023-04-29T01:22:20;12.85;;;4.88;;
68432;SDS011;55412;51.350;17.056;2023-04-29T01:24:46;9.52;;;4.78;;
68432;SDS011;55412;51.350;17.056;2023-04-29T01:27:30;15.23;;;5.47;;
68432;SDS011;55412;51.350;17.056;2023-04-29T01:36:35;11.23;;;5.35;;
68432;SDS011;55412;51.350;17.056;2023-04-29T01:45:10;9.80;;;5.00;;
68432;SDS011;55412;51.350;17.056;2023-04-29T01:47:43;12.00;;;4.68;;
68432;SDS011;55412;51.350;17.056;2023-04-29T01:50:11;11.57;;;5.03;;
68432;SDS011;55412;51.350;17.056;2023-04-29T01:52:37;10.30;;;4.90;;
68432;SDS011;55412;51.350;17.056;2023-04-29T01:55:04;12.80;;;5.47;;
68432;SDS011;55412;51.350;17.056;2023-04-29T01:57:30;12.90;;;4.93;;
68432;SDS011;55412;51.350;17.056;2023-04-29T01:59:57;12.07;;;4.57;;
68432;SDS011;55412;51.350;17.056;2023-04-29T02:02:23;15.73;;;6.10;;
68432;SDS011;55412;51.350;17.056;2023-04-29T02:04:49;13.40;;;5.13;;
68432;SDS011;55412;51.350;17.056;2023-04-29T02:07:15;11.50;;;5.03;;
68432;SDS011;55412;51.350;17.056;2023-04-29T02:09:41;13.27;;;4.40;;
68432;SDS011;55412;51.350;17.056;2023-04-29T02:12:08;11.70;;;4.45;;
68432;SDS011;55412;51.350;17.056;2023-04-29T02:14:34;15.63;;;5.47;;
68432;SDS011;55412;51.350;17.056;2023-04-29T02:17:00;11.80;;;5.32;;
68432;SDS011;55412;51.350;17.056;2023-04-29T02:19:26;12.82;;;4.82;;
68432;SDS011;55412;51.350;17.056;2023-04-29T02:21:52;11.67;;;4.63;;
68432;SDS011;55412;51.350;17.056;2023-04-29T02:24:18;11.48;;;5.55;;
68432;SDS011;55412;51.350;17.056;2023-04-29T02:26:44;9.55;;;4.43;;
68432;SDS011;55412;51.350;17.056;2023-04-29T02:29:10;15.32;;;5.10;;
68432;SDS011;55412;51.350;17.056;2023-04-29T02:31:36;11.65;;;5.00;;
68432;SDS011;55412;51.350;17.056;2023-04-29T02:34:02;10.57;;;4.77;;
68432;SDS011;55412;51.350;17.056;2023-04-29T02:36:28;13.57;;;4.47;;
68432;SDS011;55412;51.350;17.056;2023-04-29T02:38:55;12.45;;;5.28;;
68432;SDS011;55412;51.350;17.056;2023-04-29T02:41:22;12.30;;;4.85;;
68432;SDS011;55412;51.350;17.056;2023-04-29T02:43:49;12.27;;;4.97;;
68432;SDS011;55412;51.350;17.056;2023-04-29T02:46:15;11.37;;;4.77;;
68432;SDS011;55412;51.350;17.056;2023-04-29T02:48:43;12.40;;;5.03;;
68432;SDS011;55412;51.350;17.056;2023-04-29T02:51:09;10.13;;;4.38;;
68432;SDS011;55412;51.350;17.056;2023-04-29T02:53:35;11.45;;;4.63;;
68432;SDS011;55412;51.350;17.056;2023-04-29T02:56:01;11.70;;;4.65;;
68432;SDS011;55412;51.350;17.056;2023-04-29T02:58:27;11.17;;;4.83;;
68432;SDS011;55412;51.350;17.056;2023-04-29T03:00:53;9.38;;;4.22;;
68432;SDS011;55412;51.350;17.056;2023-04-29T03:03:19;11.68;;;3.95;;
68432;SDS011;55412;51.350;17.056;2023-04-29T03:05:47;12.48;;;4.40;;
68432;SDS011;55412;51.350;17.056;2023-04-29T03:08:13;11.15;;;4.63;;
68432;SDS011;55412;51.350;17.056;2023-04-29T03:10:39;10.03;;;4.00;;
68432;SDS011;55412;51.350;17.056;2023-04-29T03:13:05;11.40;;;5.03;;
68432;SDS011;55412;51.350;17.056;2023-04-29T03:15:32;10.02;;;4.07;;
68432;SDS011;55412;51.350;17.056;2023-04-29T03:17:58;12.35;;;5.15;;
68432;SDS011;55412;51.350;17.056;2023-04-29T03:20:28;10.50;;;4.13;;
68432;SDS011;55412;51.350;17.056;2023-04-29T03:22:54;10.30;;;4.47;;
68432;SDS011;55412;51.350;17.056;2023-04-29T03:25:20;10.10;;;4.25;;
68432;SDS011;55412;51.350;17.056;2023-04-29T03:27:46;8.07;;;3.80;;
68432;SDS011;55412;51.350;17.056;2023-04-29T03:30:12;12.95;;;4.65;;
68432;SDS011;55412;51.350;17.056;2023-04-29T03:32:38;12.20;;;4.13;;
68432;SDS011;55412;51.350;17.056;2023-04-29T03:35:04;14.23;;;4.13;;
68432;SDS011;55412;51.350;17.056;2023-04-29T03:37:30;10.60;;;4.32;;
68432;SDS011;55412;51.350;17.056;2023-04-29T03:39:56;11.40;;;4.47;;
68432;SDS011;55412;51.350;17.056;2023-04-29T03:42:22;15.23;;;4.78;;
68432;SDS011;55412;51.350;17.056;2023-04-29T03:44:48;9.73;;;4.13;;
68432;SDS011;55412;51.350;17.056;2023-04-29T03:47:15;12.00;;;4.15;;
68432;SDS011;55412;51.350;17.056;2023-04-29T03:49:41;9.68;;;3.85;;
68432;SDS011;55412;51.350;17.056;2023-04-29T03:52:07;9.73;;;4.75;;
68432;SDS011;55412;51.350;17.056;2023-04-29T03:54:33;13.68;;;4.40;;
68432;SDS011;55412;51.350;17.056;2023-04-29T03:56:59;10.20;;;3.83;;
68432;SDS011;55412;51.350;17.056;2023-04-29T03:59:26;9.27;;;4.00;;
68432;SDS011;55412;51.350;17.056;2023-04-29T04:01:52;10.68;;;3.85;;
68432;SDS011;55412;51.350;17.056;2023-04-29T04:04:18;10.43;;;3.95;;
68432;SDS011;55412;51.350;17.056;2023-04-29T04:06:44;9.77;;;4.25;;
68432;SDS011;55412;51.350;17.056;2023-04-29T04:09:15;12.13;;;4.07;;
68432;SDS011;55412;51.350;17.056;2023-04-29T04:11:42;7.70;;;4.13;;
68432;SDS011;55412;51.350;17.056;2023-04-29T04:14:09;9.40;;;3.78;;
68432;SDS011;55412;51.350;17.056;2023-04-29T04:16:35;9.30;;;4.18;;
68432;SDS011;55412;51.350;17.056;2023-04-29T04:19:02;11.60;;;3.58;;
68432;SDS011;55412;51.350;17.056;2023-04-29T04:21:28;7.23;;;4.33;;
68432;SDS011;55412;51.350;17.056;2023-04-29T04:23:55;13.48;;;4.07;;
68432;SDS011;55412;51.350;17.056;2023-04-29T04:26:21;8.57;;;3.30;;
68432;SDS011;55412;51.350;17.056;2023-04-29T04:28:48;9.85;;;4.18;;
68432;SDS011;55412;51.350;17.056;2023-04-29T04:31:14;9.43;;;4.35;;
68432;SDS011;55412;51.350;17.056;2023-04-29T04:33:40;10.77;;;4.50;;
68432;SDS011;55412;51.350;17.056;2023-04-29T04:36:06;10.82;;;4.63;;
68432;SDS011;55412;51.350;17.056;2023-04-29T04:38:32;11.45;;;4.47;;
68432;SDS011;55412;51.350;17.056;2023-04-29T04:40:59;10.02;;;3.95;;
68432;SDS011;55412;51.350;17.056;2023-04-29T04:43:25;8.70;;;4.05;;
68432;SDS011;55412;51.350;17.056;2023-04-29T04:45:51;8.63;;;4.10;;
68432;SDS011;55412;51.350;17.056;2023-04-29T04:48:17;11.10;;;4.55;;
68432;SDS011;55412;51.350;17.056;2023-04-29T04:50:43;8.68;;;3.90;;
68432;SDS011;55412;51.350;17.056;2023-04-29T04:53:09;11.05;;;4.65;;
68432;SDS011;55412;51.350;17.056;2023-04-29T04:55:35;8.87;;;3.70;;
68432;SDS011;55412;51.350;17.056;2023-04-29T04:58:01;14.37;;;3.50;;
68432;SDS011;55412;51.350;17.056;2023-04-29T05:00:28;9.18;;;3.75;;
68432;SDS011;55412;51.350;17.056;2023-04-29T05:02:53;9.10;;;3.92;;
68432;SDS011;55412;51.350;17.056;2023-04-29T05:05:19;8.32;;;4.20;;
68432;SDS011;55412;51.350;17.056;2023-04-29T05:07:45;9.83;;;3.90;;
68432;SDS011;55412;51.350;17.056;2023-04-29T05:10:12;10.68;;;4.28;;
68432;SDS011;55412;51.350;17.056;2023-04-29T05:12:38;9.80;;;3.95;;
68432;SDS011;55412;51.350;17.056;2023-04-29T05:15:04;9.32;;;4.07;;
68432;SDS011;55412;51.350;17.056;2023-04-29T05:17:30;17.35;;;4.45;;
68432;SDS011;55412;51.350;17.056;2023-04-29T05:19:56;9.57;;;3.47;;
68432;SDS011;55412;51.350;17.056;2023-04-29T05:22:22;8.85;;;3.97;;
68432;SDS011;55412;51.350;17.056;2023-04-29T05:24:49;11.63;;;4.32;;
68432;SDS011;55412;51.350;17.056;2023-04-29T05:27:16;11.00;;;4.38;;
68432;SDS011;55412;51.350;17.056;2023-04-29T05:29:43;10.95;;;3.95;;
68432;SDS011;55412;51.350;17.056;2023-04-29T05:32:09;10.87;;;4.67;;
68432;SDS011;55412;51.350;17.056;2023-04-29T05:34:35;8.43;;;4.55;;
68432;SDS011;55412;51.350;17.056;2023-04-29T05:37:01;9.20;;;4.28;;
68432;SDS011;55412;51.350;17.056;2023-04-29T05:39:27;10.73;;;3.90;;
68432;SDS011;55412;51.350;17.056;2023-04-29T05:41:53;10.05;;;4.45;;
68432;SDS011;55412;51.350;17.056;2023-04-29T05:44:19;9.03;;;4.77;;
68432;SDS011;55412;51.350;17.056;2023-04-29T05:46:45;13.35;;;4.78;;
68432;SDS011;55412;51.350;17.056;2023-04-29T05:49:12;8.90;;;4.45;;
68432;SDS011;55412;51.350;17.056;2023-04-29T05:51:40;9.18;;;4.90;;
68432;SDS011;55412;51.350;17.056;2023-04-29T05:54:05;9.17;;;4.33;;
68432;SDS011;55412;51.350;17.056;2023-04-29T05:56:31;10.35;;;4.07;;
68432;SDS011;55412;51.350;17.056;2023-04-29T05:58:57;9.65;;;3.80;;
68432;SDS011;55412;51.350;17.056;2023-04-29T06:01:23;8.93;;;3.80;;
68432;SDS011;55412;51.350;17.056;2023-04-29T06:03:49;10.02;;;4.13;;
68432;SDS011;55412;51.350;17.056;2023-04-29T06:06:16;8.57;;;4.03;;
68432;SDS011;55412;51.350;17.056;2023-04-29T06:08:42;12.40;;;4.68;;
68432;SDS011;55412;51.350;17.056;2023-04-29T06:11:08;9.48;;;4.38;;
68432;SDS011;55412;51.350;17.056;2023-04-29T06:13:34;8.93;;;4.20;;
68432;SDS011;55412;51.350;17.056;2023-04-29T06:16:00;9.75;;;4.47;;
68432;SDS011;55412;51.350;17.056;2023-04-29T06:18:26;10.27;;;4.30;;
68432;SDS011;55412;51.350;17.056;2023-04-29T06:20:52;13.45;;;4.43;;
68432;SDS011;55412;51.350;17.056;2023-04-29T06:23:18;11.75;;;5.72;;
68432;SDS011;55412;51.350;17.056;2023-04-29T06:25:44;9.05;;;4.07;;
68432;SDS011;55412;51.350;17.056;2023-04-29T06:28:10;8.70;;;3.83;;
68432;SDS011;55412;51.350;17.056;2023-04-29T06:30:36;9.90;;;4.73;;
68432;SDS011;55412;51.350;17.056;2023-04-29T06:33:02;12.25;;;5.22;;
68432;SDS011;55412;51.350;17.056;2023-04-29T06:35:28;10.73;;;4.28;;
68432;SDS011;55412;51.350;17.056;2023-04-29T06:37:54;9.23;;;4.50;;
68432;SDS011;55412;51.350;17.056;2023-04-29T06:40:20;10.98;;;4.72;;
68432;SDS011;55412;51.350;17.056;2023-04-29T06:42:46;10.13;;;3.60;;
68432;SDS011;55412;51.350;17.056;2023-04-29T06:45:12;15.68;;;5.43;;
68432;SDS011;55412;51.350;17.056;2023-04-29T06:47:39;9.25;;;4.25;;
68432;SDS011;55412;51.350;17.056;2023-04-29T06:50:05;10.10;;;4.72;;
68432;SDS011;55412;51.350;17.056;2023-04-29T06:52:32;9.87;;;4.80;;
68432;SDS011;55412;51.350;17.056;2023-04-29T06:54:58;8.52;;;4.00;;
68432;SDS011;55412;51.350;17.056;2023-04-29T06:57:24;11.52;;;4.28;;
68432;SDS011;55412;51.350;17.056;2023-04-29T06:59:51;10.80;;;4.60;;
68432;SDS011;55412;51.350;17.056;2023-04-29T07:02:17;11.15;;;4.97;;
68432;SDS011;55412;51.350;17.056;2023-04-29T07:04:43;9.17;;;3.67;;
68432;SDS011;55412;51.350;17.056;2023-04-29T07:07:09;11.38;;;4.40;;
68432;SDS011;55412;51.350;17.056;2023-04-29T07:09:36;8.27;;;4.05;;
68432;SDS011;55412;51.350;17.056;2023-04-29T07:12:02;9.45;;;4.10;;
68432;SDS011;55412;51.350;17.056;2023-04-29T07:14:28;7.78;;;3.58;;
68432;SDS011;55412;51.350;17.056;2023-04-29T07:16:55;10.30;;;3.83;;
68432;SDS011;55412;51.350;17.056;2023-04-29T07:19:21;8.88;;;4.00;;
68432;SDS011;55412;51.350;17.056;2023-04-29T07:21:47;7.47;;;4.18;;
68432;SDS011;55412;51.350;17.056;2023-04-29T07:24:13;7.18;;;3.45;;
68432;SDS011;55412;51.350;17.056;2023-04-29T07:26:39;10.32;;;4.55;;
68432;SDS011;55412;51.350;17.056;2023-04-29T07:29:08;10.10;;;3.80;;
68432;SDS011;55412;51.350;17.056;2023-04-29T07:31:34;13.23;;;3.97;;
68432;SDS011;55412;51.350;17.056;2023-04-29T07:34:00;9.77;;;4.28;;
68432;SDS011;55412;51.350;17.056;2023-04-29T07:36:26;8.48;;;3.53;;
68432;SDS011;55412;51.350;17.056;2023-04-29T07:38:52;8.48;;;4.30;;
68432;SDS011;55412;51.350;17.056;2023-04-29T07:41:19;8.47;;;4.10;;
68432;SDS011;55412;51.350;17.056;2023-04-29T07:43:45;10.77;;;5.18;;
68432;SDS011;55412;51.350;17.056;2023-04-29T07:46:11;9.45;;;4.05;;
68432;SDS011;55412;51.350;17.056;2023-04-29T07:48:38;9.25;;;4.65;;
68432;SDS011;55412;51.350;17.056;2023-04-29T07:51:04;7.78;;;3.95;;
68432;SDS011;55412;51.350;17.056;2023-04-29T07:53:31;11.70;;;4.80;;
68432;SDS011;55412;51.350;17.056;2023-04-29T07:55:57;9.02;;;4.53;;
68432;SDS011;55412;51.350;17.056;2023-04-29T07:58:23;9.50;;;4.50;;
68432;SDS011;55412;51.350;17.056;2023-04-29T08:00:49;11.77;;;4.60;;
68432;SDS011;55412;51.350;17.056;2023-04-29T08:03:15;9.57;;;4.37;;
68432;SDS011;55412;51.350;17.056;2023-04-29T08:05:41;7.90;;;4.43;;
68432;SDS011;55412;51.350;17.056;2023-04-29T08:08:07;12.20;;;5.15;;
68432;SDS011;55412;51.350;17.056;2023-04-29T08:10:36;10.70;;;4.72;;
68432;SDS011;55412;51.350;17.056;2023-04-29T08:13:05;9.48;;;5.07;;
68432;SDS011;55412;51.350;17.056;2023-04-29T08:15:31;9.73;;;4.43;;
68432;SDS011;55412;51.350;17.056;2023-04-29T08:17:57;10.50;;;4.68;;
68432;SDS011;55412;51.350;17.056;2023-04-29T08:20:23;8.70;;;5.00;;
68432;SDS011;55412;51.350;17.056;2023-04-29T08:22:49;9.20;;;4.75;;
68432;SDS011;55412;51.350;17.056;2023-04-29T08:25:15;11.98;;;4.50;;
68432;SDS011;55412;51.350;17.056;2023-04-29T08:27:41;9.50;;;4.70;;
68432;SDS011;55412;51.350;17.056;2023-04-29T08:30:09;11.02;;;4.35;;
68432;SDS011;55412;51.350;17.056;2023-04-29T08:32:36;9.93;;;4.93;;
68432;SDS011;55412;51.350;17.056;2023-04-29T08:35:02;10.00;;;5.00;;
68432;SDS011;55412;51.350;17.056;2023-04-29T08:37:29;8.90;;;5.00;;
68432;SDS011;55412;51.350;17.056;2023-04-29T08:39:55;10.37;;;4.97;;
68432;SDS011;55412;51.350;17.056;2023-04-29T08:42:27;15.10;;;5.40;;
68432;SDS011;55412;51.350;17.056;2023-04-29T08:45:02;12.32;;;5.43;;
68432;SDS011;55412;51.350;17.056;2023-04-29T08:47:30;9.48;;;4.90;;
68432;SDS011;55412;51.350;17.056;2023-04-29T08:50:01;11.82;;;4.90;;
68432;SDS011;55412;51.350;17.056;2023-04-29T08:52:32;11.00;;;5.17;;
68432;SDS011;55412;51.350;17.056;2023-04-29T08:54:58;12.57;;;5.40;;
68432;SDS011;55412;51.350;17.056;2023-04-29T08:57:27;10.95;;;5.45;;
68432;SDS011;55412;51.350;17.056;2023-04-29T08:59:56;13.13;;;4.85;;
68432;SDS011;55412;51.350;17.056;2023-04-29T09:02:25;13.18;;;5.57;;
68432;SDS011;55412;51.350;17.056;2023-04-29T09:04:59;15.23;;;5.47;;
68432;SDS011;55412;51.350;17.056;2023-04-29T09:07:31;10.55;;;5.25;;
68432;SDS011;55412;51.350;17.056;2023-04-29T09:09:58;10.20;;;5.10;;
68432;SDS011;55412;51.350;17.056;2023-04-29T09:12:25;10.82;;;5.65;;
68432;SDS011;55412;51.350;17.056;2023-04-29T09:14:51;10.60;;;5.30;;
68432;SDS011;55412;51.350;17.056;2023-04-29T09:17:17;13.10;;;5.90;;
68432;SDS011;55412;51.350;17.056;2023-04-29T09:19:44;12.00;;;5.70;;
68432;SDS011;55412;51.350;17.056;2023-04-29T09:22:10;11.13;;;5.63;;
68432;SDS011;55412;51.350;17.056;2023-04-29T09:24:36;9.57;;;4.55;;
68432;SDS011;55412;51.350;17.056;2023-04-29T09:27:03;10.77;;;5.18;;
68432;SDS011;55412;51.350;17.056;2023-04-29T09:29:30;8.70;;;4.17;;
68432;SDS011;55412;51.350;17.056;2023-04-29T09:31:57;9.45;;;4.35;;
68432;SDS011;55412;51.350;17.056;2023-04-29T09:34:29;8.43;;;4.55;;
68432;SDS011;55412;51.350;17.056;2023-04-29T09:37:21;9.65;;;4.13;;
68432;SDS011;55412;51.350;17.056;2023-04-29T09:39:52;7.65;;;4.00;;
68432;SDS011;55412;51.350;17.056;2023-04-29T09:42:19;9.13;;;4.07;;
68432;SDS011;55412;51.350;17.056;2023-04-29T09:44:45;8.60;;;3.30;;
68432;SDS011;55412;51.350;17.056;2023-04-29T09:47:11;8.05;;;4.38;;
68432;SDS011;55412;51.350;17.056;2023-04-29T09:49:38;8.52;;;3.97;;
68432;SDS011;55412;51.350;17.056;2023-04-29T09:52:07;8.88;;;3.95;;
68432;SDS011;55412;51.350;17.056;2023-04-29T09:54:35;6.07;;;2.70;;
68432;SDS011;55412;51.350;17.056;2023-04-29T09:57:04;7.40;;;3.25;;
68432;SDS011;55412;51.350;17.056;2023-04-29T09:59:32;6.38;;;3.38;;
68432;SDS011;55412;51.350;17.056;2023-04-29T10:02:00;6.28;;;2.90;;
68432;SDS011;55412;51.350;17.056;2023-04-29T10:04:31;7.38;;;3.05;;
68432;SDS011;55412;51.350;17.056;2023-04-29T10:07:03;7.83;;;2.87;;
68432;SDS011;55412;51.350;17.056;2023-04-29T10:09:29;5.78;;;2.67;;
68432;SDS011;55412;51.350;17.056;2023-04-29T10:11:55;6.50;;;3.08;;
68432;SDS011;55412;51.350;17.056;2023-04-29T10:14:22;6.63;;;2.55;;
68432;SDS011;55412;51.350;17.056;2023-04-29T10:16:53;7.70;;;3.00;;
68432;SDS011;55412;51.350;17.056;2023-04-29T10:19:49;6.87;;;2.73;;
68432;SDS011;55412;51.350;17.056;2023-04-29T10:22:33;5.97;;;2.28;;
68432;SDS011;55412;51.350;17.056;2023-04-29T10:25:05;7.78;;;2.42;;
68432;SDS011;55412;51.350;17.056;2023-04-29T10:27:35;4.93;;;2.55;;
68432;SDS011;55412;51.350;17.056;2023-04-29T10:30:02;7.40;;;2.50;;
68432;SDS011;55412;51.350;17.056;2023-04-29T10:32:30;9.63;;;2.67;;
68432;SDS011;55412;51.350;17.056;2023-04-29T10:34:59;5.43;;;2.10;;
68432;SDS011;55412;51.350;17.056;2023-04-29T10:37:27;5.07;;;2.42;;
68432;SDS011;55412;51.350;17.056;2023-04-29T10:42:37;4.93;;;1.90;;
68432;SDS011;55412;51.350;17.056;2023-04-29T10:45:18;5.83;;;1.33;;
68432;SDS011;55412;51.350;17.056;2023-04-29T10:51:16;4.78;;;1.55;;
68432;SDS011;55412;51.350;17.056;2023-04-29T10:53:24;3.50;;;1.25;;
68432;SDS011;55412;51.350;17.056;2023-04-29T10:56:05;4.88;;;1.33;;
68432;SDS011;55412;51.350;17.056;2023-04-29T10:58:35;3.30;;;1.30;;
68432;SDS011;55412;51.350;17.056;2023-04-29T11:01:15;3.22;;;1.10;;
68432;SDS011;55412;51.350;17.056;2023-04-29T11:03:45;3.50;;;1.20;;
68432;SDS011;55412;51.350;17.056;2023-04-29T11:12:03;3.97;;;1.40;;
68432;SDS011;55412;51.350;17.056;2023-04-29T11:14:42;3.53;;;1.25;;
68432;SDS011;55412;51.350;17.056;2023-04-29T11:17:15;4.05;;;1.50;;
68432;SDS011;55412;51.350;17.056;2023-04-29T11:19:50;3.55;;;1.35;;
68432;SDS011;55412;51.350;17.056;2023-04-29T11:24:55;3.53;;;1.13;;
68432;SDS011;55412;51.350;17.056;2023-04-29T11:27:28;3.63;;;1.27;;
68432;SDS011;55412;51.350;17.056;2023-04-29T11:29:58;5.00;;;1.60;;
68432;SDS011;55412;51.350;17.056;2023-04-29T11:32:28;3.67;;;1.08;;
68432;SDS011;55412;51.350;17.056;2023-04-29T11:35:17;4.20;;;1.77;;
68432;SDS011;55412;51.350;17.056;2023-04-29T11:37:44;4.17;;;1.50;;
68432;SDS011;55412;51.350;17.056;2023-04-29T11:40:12;5.53;;;1.40;;
68432;SDS011;55412;51.350;17.056;2023-04-29T11:42:40;5.07;;;1.30;;
68432;SDS011;55412;51.350;17.056;2023-04-29T11:45:11;4.05;;;1.27;;
68432;SDS011;55412;51.350;17.056;2023-04-29T11:47:41;4.85;;;1.85;;
68432;SDS011;55412;51.350;17.056;2023-04-29T11:50:12;3.67;;;1.30;;
68432;SDS011;55412;51.350;17.056;2023-04-29T11:52:41;5.80;;;1.33;;
68432;SDS011;55412;51.350;17.056;2023-04-29T11:55:09;2.97;;;1.23;;
68432;SDS011;55412;51.350;17.056;2023-04-29T11:57:36;3.35;;;1.05;;
68432;SDS011;55412;51.350;17.056;2023-04-29T12:00:09;4.13;;;1.20;;
68432;SDS011;55412;51.350;17.056;2023-04-29T12:02:37;3.43;;;0.90;;
68432;SDS011;55412;51.350;17.056;2023-04-29T12:05:05;3.78;;;1.52;;
68432;SDS011;55412;51.350;17.056;2023-04-29T12:07:32;3.53;;;1.30;;
68432;SDS011;55412;51.350;17.056;2023-04-29T12:10:00;3.42;;;1.15;;
68432;SDS011;55412;51.350;17.056;2023-04-29T12:12:26;3.72;;;1.30;;
68432;SDS011;55412;51.350;17.056;2023-04-29T12:14:53;3.67;;;1.00;;
68432;SDS011;55412;51.350;17.056;2023-04-29T12:17:19;5.07;;;1.10;;
68432;SDS011;55412;51.350;17.056;2023-04-29T12:19:45;4.05;;;1.38;;
68432;SDS011;55412;51.350;17.056;2023-04-29T12:22:13;7.75;;;1.30;;
68432;SDS011;55412;51.350;17.056;2023-04-29T12:24:40;3.78;;;1.17;;
68432;SDS011;55412;51.350;17.056;2023-04-29T12:27:09;4.43;;;1.40;;
68432;SDS011;55412;51.350;17.056;2023-04-29T12:29:36;5.07;;;1.65;;
68432;SDS011;55412;51.350;17.056;2023-04-29T12:32:04;4.50;;;1.60;;
68432;SDS011;55412;51.350;17.056;2023-04-29T12:34:32;5.55;;;1.88;;
68432;SDS011;55412;51.350;17.056;2023-04-29T12:36:58;4.53;;;1.58;;
68432;SDS011;55412;51.350;17.056;2023-04-29T12:39:26;4.73;;;1.40;;
68432;SDS011;55412;51.350;17.056;2023-04-29T12:41:54;8.15;;;1.63;;
68432;SDS011;55412;51.350;17.056;2023-04-29T12:44:23;4.22;;;1.20;;
68432;SDS011;55412;51.350;17.056;2023-04-29T12:46:50;3.55;;;1.40;;
68432;SDS011;55412;51.350;17.056;2023-04-29T12:49:17;9.57;;;1.73;;
68432;SDS011;55412;51.350;17.056;2023-04-29T12:51:44;3.63;;;1.07;;
68432;SDS011;55412;51.350;17.056;2023-04-29T12:54:10;4.75;;;1.30;;
68432;SDS011;55412;51.350;17.056;2023-04-29T12:56:37;4.45;;;1.60;;
68432;SDS011;55412;51.350;17.056;2023-04-29T12:59:03;5.07;;;1.40;;
68432;SDS011;55412;51.350;17.056;2023-04-29T13:01:34;4.72;;;1.30;;
68432;SDS011;55412;51.350;17.056;2023-04-29T13:04:01;4.23;;;1.43;;
68432;SDS011;55412;51.350;17.056;2023-04-29T13:06:29;4.53;;;1.73;;
68432;SDS011;55412;51.350;17.056;2023-04-29T13:08:57;5.55;;;2.05;;
68432;SDS011;55412;51.350;17.056;2023-04-29T13:11:23;5.13;;;1.88;;
68432;SDS011;55412;51.350;17.056;2023-04-29T13:13:48;6.13;;;1.90;;
68432;SDS011;55412;51.350;17.056;2023-04-29T13:16:15;4.70;;;2.10;;
68432;SDS011;55412;51.350;17.056;2023-04-29T13:18:42;4.97;;;1.75;;
68432;SDS011;55412;51.350;17.056;2023-04-29T13:21:08;6.38;;;2.05;;
68432;SDS011;55412;51.350;17.056;2023-04-29T13:23:34;4.28;;;1.55;;
68432;SDS011;55412;51.350;17.056;2023-04-29T13:26:00;5.37;;;1.93;;
68432;SDS011;55412;51.350;17.056;2023-04-29T13:28:26;3.93;;;2.00;;
68432;SDS011;55412;51.350;17.056;2023-04-29T13:30:52;4.68;;;1.58;;
68432;SDS011;55412;51.350;17.056;2023-04-29T13:33:18;5.07;;;1.30;;
68432;SDS011;55412;51.350;17.056;2023-04-29T13:35:44;3.78;;;1.27;;
68432;SDS011;55412;51.350;17.056;2023-04-29T13:38:11;5.35;;;1.20;;
68432;SDS011;55412;51.350;17.056;2023-04-29T13:40:37;5.20;;;1.73;;
68432;SDS011;55412;51.350;17.056;2023-04-29T13:43:03;4.45;;;1.90;;
68432;SDS011;55412;51.350;17.056;2023-04-29T13:45:31;3.20;;;1.15;;
68432;SDS011;55412;51.350;17.056;2023-04-29T13:47:59;5.00;;;1.45;;
68432;SDS011;55412;51.350;17.056;2023-04-29T13:50:26;3.85;;;1.33;;
68432;SDS011;55412;51.350;17.056;2023-04-29T13:52:52;4.70;;;1.43;;
68432;SDS011;55412;51.350;17.056;2023-04-29T13:55:19;4.75;;;1.35;;
68432;SDS011;55412;51.350;17.056;2023-04-29T13:57:45;3.42;;;1.13;;
68432;SDS011;55412;51.350;17.056;2023-04-29T14:00:11;4.07;;;1.45;;
68432;SDS011;55412;51.350;17.056;2023-04-29T14:02:38;4.47;;;1.50;;
68432;SDS011;55412;51.350;17.056;2023-04-29T14:05:05;3.00;;;1.00;;
68432;SDS011;55412;51.350;17.056;2023-04-29T14:07:31;3.88;;;1.25;;
68432;SDS011;55412;51.350;17.056;2023-04-29T14:09:57;3.65;;;1.48;;
68432;SDS011;55412;51.350;17.056;2023-04-29T14:12:23;4.03;;;1.70;;
68432;SDS011;55412;51.350;17.056;2023-04-29T14:14:49;7.00;;;1.63;;
68432;SDS011;55412;51.350;17.056;2023-04-29T14:17:15;12.50;;;1.25;;
68432;SDS011;55412;51.350;17.056;2023-04-29T14:19:41;6.13;;;1.65;;
68432;SDS011;55412;51.350;17.056;2023-04-29T14:22:07;7.32;;;2.45;;
68432;SDS011;55412;51.350;17.056;2023-04-29T14:24:33;4.90;;;1.92;;
68432;SDS011;55412;51.350;17.056;2023-04-29T14:26:59;5.63;;;2.17;;
68432;SDS011;55412;51.350;17.056;2023-04-29T14:29:26;5.25;;;2.25;;
68432;SDS011;55412;51.350;17.056;2023-04-29T14:31:53;6.40;;;1.90;;
68432;SDS011;55412;51.350;17.056;2023-04-29T14:34:20;8.70;;;2.72;;
68432;SDS011;55412;51.350;17.056;2023-04-29T14:36:46;6.10;;;2.17;;
68432;SDS011;55412;51.350;17.056;2023-04-29T14:39:12;7.07;;;2.43;;
68432;SDS011;55412;51.350;17.056;2023-04-29T14:41:38;5.82;;;2.78;;
68432;SDS011;55412;51.350;17.056;2023-04-29T14:44:04;6.00;;;2.53;;
68432;SDS011;55412;51.350;17.056;2023-04-29T14:46:31;5.85;;;2.63;;
68432;SDS011;55412;51.350;17.056;2023-04-29T14:48:57;5.10;;;1.53;;
68432;SDS011;55412;51.350;17.056;2023-04-29T14:51:23;6.25;;;1.92;;
68432;SDS011;55412;51.350;17.056;2023-04-29T14:53:49;6.05;;;2.17;;
68432;SDS011;55412;51.350;17.056;2023-04-29T14:56:16;5.65;;;2.20;;
68432;SDS011;55412;51.350;17.056;2023-04-29T14:58:43;7.93;;;2.80;;
68432;SDS011;55412;51.350;17.056;2023-04-29T15:01:09;6.00;;;2.07;;
68432;SDS011;55412;51.350;17.056;2023-04-29T15:03:35;5.88;;;2.53;;